createdAt,value
2023-03-06T00:00:34.830Z,110.30
2023-03-06T00:01:37.828Z,110.70
2023-03-06T00:02:41.134Z,100.50
2023-03-06T00:04:16.570Z,100.60
2023-03-06T00:05:19.490Z,101.60
2023-03-06T00:06:22.841Z,101.90
2023-03-06T00:07:57.660Z,115.90
2023-03-06T00:09:00.634Z,100.60
2023-03-06T00:10:03.584Z,100.40
2023-03-06T00:11:38.316Z,115.60
2023-03-06T00:12:41.297Z,117.10
2023-03-06T00:13:44.237Z,100.20
2023-03-06T00:15:22.520Z,120.00
2023-03-06T00:16:26.078Z,118.50
2023-03-06T00:17:29.166Z,119.60
2023-03-06T00:19:04.335Z,104.40
2023-03-06T00:20:07.302Z,103.50
2023-03-06T00:21:10.361Z,128.60
2023-03-06T00:22:45.253Z,118.10
2023-03-06T00:23:48.133Z,111.50
2023-03-06T00:24:50.894Z,116.00
2023-03-06T00:26:25.820Z,116.20
2023-03-06T00:27:28.623Z,109.70
2023-03-06T00:28:32.153Z,130.00
2023-03-06T00:30:07.445Z,131.10
2023-03-06T00:31:10.799Z,109.10
2023-03-06T00:32:14.483Z,120.80
2023-03-06T00:33:49.615Z,127.40
2023-03-06T00:34:52.678Z,117.80
2023-03-06T00:35:56.198Z,130.20
2023-03-06T00:37:31.235Z,119.50
2023-03-06T00:38:34.274Z,115.40
2023-03-06T00:39:37.578Z,126.70
2023-03-06T00:41:12.580Z,111.10
2023-03-06T00:42:15.413Z,110.70
2023-03-06T00:43:18.275Z,112.10
2023-03-06T00:44:53.070Z,111.00
2023-03-06T00:45:56.332Z,127.20
2023-03-06T00:46:59.274Z,126.90
2023-03-06T00:48:34.327Z,111.40
2023-03-06T00:49:37.317Z,110.30
2023-03-06T00:50:40.462Z,112.50
2023-03-06T00:52:17.190Z,129.10
2023-03-06T00:53:20.210Z,124.00
2023-03-06T00:54:23.218Z,122.40
2023-03-06T00:55:58.385Z,134.50
2023-03-06T00:57:01.308Z,119.70
2023-03-06T00:58:04.503Z,132.20
2023-03-06T00:59:39.216Z,133.10
2023-03-06T01:00:35.160Z,122.80
2023-03-06T01:01:38.492Z,123.90
2023-03-06T01:02:41.857Z,120.80
2023-03-06T01:04:16.809Z,137.20
2023-03-06T01:05:19.721Z,124.10
2023-03-06T01:06:22.775Z,117.20
2023-03-06T01:07:57.925Z,114.40
2023-03-06T01:09:01.119Z,115.40
2023-03-06T01:10:04.142Z,115.80
2023-03-06T01:11:39.202Z,133.30
2023-03-06T01:12:45.263Z,133.00
2023-03-06T01:13:48.125Z,127.10
2023-03-06T01:15:22.954Z,138.10
2023-03-06T01:16:26.060Z,128.70
2023-03-06T01:17:28.914Z,167.50
2023-03-06T01:19:03.481Z,131.20
2023-03-06T01:20:06.854Z,127.90
2023-03-06T01:21:09.822Z,116.70
2023-03-06T01:22:44.621Z,133.90
2023-03-06T01:23:47.708Z,120.40
2023-03-06T01:24:50.754Z,122.30
2023-03-06T01:26:25.961Z,123.80
2023-03-06T01:27:29.165Z,138.50
2023-03-06T01:28:32.018Z,123.80
2023-03-06T01:30:06.865Z,124.60
2023-03-06T01:31:09.739Z,123.00
2023-03-06T01:32:13.265Z,137.00
2023-03-06T01:33:48.524Z,121.10
2023-03-06T01:34:51.477Z,129.50
2023-03-06T01:35:55.192Z,125.10
2023-03-06T01:37:29.858Z,127.80
2023-03-06T01:38:32.842Z,124.30
2023-03-06T01:39:36.050Z,133.50
2023-03-06T01:41:11.339Z,133.20
2023-03-06T01:42:14.521Z,134.20
2023-03-06T01:43:17.663Z,120.20
2023-03-06T01:44:52.920Z,115.80
2023-03-06T01:45:56.269Z,129.80
2023-03-06T01:46:59.421Z,133.70
2023-03-06T01:48:34.415Z,120.60
2023-03-06T01:49:37.480Z,130.70
2023-03-06T01:50:40.306Z,122.40
2023-03-06T01:52:14.997Z,140.80
2023-03-06T01:53:17.959Z,121.20
2023-03-06T01:54:20.724Z,126.90
2023-03-06T01:55:55.628Z,135.60
2023-03-06T01:56:58.778Z,144.50
2023-03-06T01:58:01.886Z,137.90
2023-03-06T01:59:36.865Z,121.50
2023-03-06T02:00:34.852Z,138.60
2023-03-06T02:01:37.874Z,127.90
2023-03-06T02:02:41.238Z,130.50
2023-03-06T02:04:16.056Z,117.70
2023-03-06T02:05:19.038Z,123.90
2023-03-06T02:06:22.035Z,123.70
2023-03-06T02:07:56.837Z,114.40
2023-03-06T02:08:59.631Z,113.50
2023-03-06T02:10:02.586Z,115.00
2023-03-06T02:11:37.918Z,116.80
2023-03-06T02:12:41.066Z,113.90
2023-03-06T02:13:44.084Z,102.60
2023-03-06T02:15:18.928Z,115.10
2023-03-06T02:16:21.793Z,98.00
2023-03-06T02:17:24.963Z,116.90
2023-03-06T02:18:59.696Z,105.80
2023-03-06T02:20:02.976Z,118.90
2023-03-06T02:21:05.987Z,120.80
2023-03-06T02:22:40.916Z,105.80
2023-03-06T02:23:43.787Z,110.10
2023-03-06T02:24:46.831Z,119.50
2023-03-06T02:26:21.941Z,104.40
2023-03-06T02:27:24.802Z,130.00
2023-03-06T02:28:28.018Z,114.20
2023-03-06T02:30:02.877Z,111.90
2023-03-06T02:31:06.324Z,112.30
2023-03-06T02:32:09.568Z,121.70
2023-03-06T02:33:45.023Z,124.60
2023-03-06T02:34:47.943Z,125.90
2023-03-06T02:35:51.396Z,127.90
2023-03-06T02:37:26.447Z,118.50
2023-03-06T02:38:29.441Z,121.90
2023-03-06T02:39:32.257Z,121.60
2023-03-06T02:41:06.951Z,197.10
2023-03-06T02:42:09.853Z,162.40
2023-03-06T02:43:12.746Z,166.70
2023-03-06T02:44:47.566Z,154.10
2023-03-06T02:45:50.856Z,150.00
2023-03-06T02:46:54.104Z,150.10
2023-03-06T02:48:28.957Z,151.70
2023-03-06T02:49:32.282Z,145.30
2023-03-06T02:50:35.233Z,158.30
2023-03-06T02:52:10.175Z,142.40
2023-03-06T02:53:13.261Z,126.50
2023-03-06T02:54:16.268Z,154.90
2023-03-06T02:55:51.125Z,136.10
2023-03-06T02:56:54.240Z,135.80
2023-03-06T02:57:56.959Z,136.00
2023-03-06T02:59:31.868Z,127.80
2023-03-06T03:00:34.346Z,121.80
2023-03-06T03:01:37.885Z,137.80
2023-03-06T03:02:41.236Z,124.00
2023-03-06T03:04:16.133Z,123.40
2023-03-06T03:05:19.509Z,123.40
2023-03-06T03:06:22.719Z,131.00
2023-03-06T03:07:57.710Z,137.60
2023-03-06T03:09:00.662Z,129.50
2023-03-06T03:10:03.938Z,125.40
2023-03-06T03:11:38.850Z,141.50
2023-03-06T03:12:41.736Z,131.90
2023-03-06T03:13:44.559Z,126.30
2023-03-06T03:15:19.296Z,125.00
2023-03-06T03:16:22.617Z,126.00
2023-03-06T03:17:25.625Z,129.00
2023-03-06T03:19:00.410Z,126.90
2023-03-06T03:20:03.322Z,137.90
2023-03-06T03:21:06.571Z,129.90
2023-03-06T03:22:41.523Z,142.10
2023-03-06T03:23:44.613Z,140.30
2023-03-06T03:24:47.877Z,121.20
2023-03-06T03:26:22.999Z,125.00
2023-03-06T03:27:25.950Z,174.90
2023-03-06T03:28:28.841Z,137.60
2023-03-06T03:30:03.312Z,127.20
2023-03-06T03:31:06.179Z,139.80
2023-03-06T03:32:09.348Z,132.10
2023-03-06T03:33:44.313Z,178.30
2023-03-06T03:34:47.221Z,131.00
2023-03-06T03:35:50.747Z,132.00
2023-03-06T03:37:25.666Z,161.10
2023-03-06T03:38:28.685Z,161.50
2023-03-06T03:39:31.688Z,150.20
2023-03-06T03:41:06.775Z,145.30
2023-03-06T03:42:09.800Z,173.10
2023-03-06T03:43:12.786Z,132.10
2023-03-06T03:44:48.297Z,144.70
2023-03-06T03:45:51.325Z,144.20
2023-03-06T03:46:54.517Z,145.00
2023-03-06T03:48:29.560Z,133.50
2023-03-06T03:49:32.602Z,147.00
2023-03-06T03:50:35.626Z,128.90
2023-03-06T03:52:10.349Z,129.00
2023-03-06T03:53:13.326Z,141.60
2023-03-06T03:54:16.257Z,132.00
2023-03-06T03:55:51.129Z,150.00
2023-03-06T03:56:54.210Z,133.10
2023-03-06T03:57:57.300Z,146.50
2023-03-06T03:59:32.219Z,148.00
2023-03-06T04:00:34.918Z,148.70
2023-03-06T04:01:39.659Z,173.80
2023-03-06T04:02:42.924Z,150.00
2023-03-06T04:04:17.799Z,138.40
2023-03-06T04:05:20.864Z,123.80
2023-03-06T04:06:23.790Z,129.30
2023-03-06T04:07:58.788Z,145.00
2023-03-06T04:09:01.743Z,130.60
2023-03-06T04:10:04.801Z,160.90
2023-03-06T04:11:39.997Z,265.60
2023-03-06T04:12:43.108Z,143.50
2023-03-06T04:13:46.212Z,138.00
2023-03-06T04:15:21.300Z,177.20
2023-03-06T04:16:24.656Z,149.70
2023-03-06T04:17:27.794Z,123.60
2023-03-06T04:19:02.926Z,123.00
2023-03-06T04:20:05.750Z,297.50
2023-03-06T04:21:08.597Z,202.90
2023-03-06T04:22:43.322Z,194.00
2023-03-06T04:23:46.234Z,209.50
2023-03-06T04:24:49.139Z,136.30
2023-03-06T04:26:23.819Z,126.80
2023-03-06T04:27:26.990Z,125.40
2023-03-06T04:28:30.155Z,123.80
2023-03-06T04:30:05.096Z,124.30
2023-03-06T04:31:08.305Z,126.30
2023-03-06T04:32:11.682Z,144.50
2023-03-06T04:33:50.409Z,142.70
2023-03-06T04:34:53.534Z,136.40
2023-03-06T04:35:56.773Z,142.80
2023-03-06T04:37:31.732Z,141.50
2023-03-06T04:38:34.719Z,142.40
2023-03-06T04:39:37.861Z,120.10
2023-03-06T04:41:13.435Z,117.50
2023-03-06T04:42:17.023Z,131.50
2023-03-06T04:43:19.870Z,156.50
2023-03-06T04:44:54.768Z,132.90
2023-03-06T04:45:58.137Z,140.80
2023-03-06T04:47:01.123Z,178.90
2023-03-06T04:48:36.373Z,139.30
2023-03-06T04:49:39.272Z,139.50
2023-03-06T04:50:42.368Z,174.90
2023-03-06T04:52:17.051Z,191.60
2023-03-06T04:53:19.774Z,129.90
2023-03-06T04:54:24.850Z,158.30
2023-03-06T04:55:59.726Z,143.40
2023-03-06T04:57:02.492Z,138.90
2023-03-06T04:58:05.509Z,137.10
2023-03-06T04:59:40.118Z,149.80
2023-03-06T05:00:34.409Z,163.30
2023-03-06T05:01:37.822Z,193.90
2023-03-06T05:02:41.021Z,151.20
2023-03-06T05:04:15.966Z,152.90
2023-03-06T05:06:04.567Z,255.80
2023-03-06T05:07:08.212Z,203.10
2023-03-06T05:08:11.518Z,172.40
2023-03-06T05:09:48.019Z,212.20
2023-03-06T05:10:51.200Z,150.20
2023-03-06T05:11:54.306Z,155.10
2023-03-06T05:13:29.470Z,150.00
2023-03-06T05:14:32.673Z,151.50
2023-03-06T05:15:35.803Z,142.20
2023-03-06T05:17:11.033Z,147.50
2023-03-06T05:18:14.205Z,170.70
2023-03-06T05:19:17.515Z,162.20
2023-03-06T05:20:52.509Z,166.60
2023-03-06T05:21:55.651Z,141.00
2023-03-06T05:22:58.890Z,148.80
2023-03-06T05:24:33.871Z,156.70
2023-03-06T05:25:36.964Z,146.20
2023-03-06T05:26:39.810Z,137.30
2023-03-06T05:28:14.650Z,249.70
2023-03-06T05:29:17.904Z,131.60
2023-03-06T05:30:21.216Z,129.60
2023-03-06T05:31:57.170Z,135.90
2023-03-06T05:33:00.911Z,137.80
2023-03-06T05:34:03.908Z,138.40
2023-03-06T05:35:39.326Z,134.40
2023-03-06T05:36:42.871Z,117.80
2023-03-06T05:37:46.563Z,140.30
2023-03-06T05:39:22.090Z,135.30
2023-03-06T05:40:24.939Z,139.90
2023-03-06T05:41:28.013Z,147.10
2023-03-06T05:43:03.152Z,173.60
2023-03-06T05:44:06.150Z,143.70
2023-03-06T05:45:09.181Z,137.20
2023-03-06T05:46:44.662Z,176.80
2023-03-06T05:47:47.819Z,130.90
2023-03-06T05:48:52.605Z,128.40
2023-03-06T05:50:27.926Z,140.70
2023-03-06T05:51:30.971Z,137.30
2023-03-06T05:52:34.001Z,150.80
2023-03-06T05:54:09.166Z,142.20
2023-03-06T05:55:12.119Z,147.00
2023-03-06T05:56:15.340Z,147.60
2023-03-06T05:57:51.370Z,139.10
2023-03-06T05:58:54.439Z,128.70
2023-03-06T05:59:57.859Z,143.10
2023-03-06T06:00:34.820Z,143.10
2023-03-06T06:01:37.940Z,134.70
2023-03-06T06:02:41.863Z,142.30
2023-03-06T06:04:17.004Z,124.30
2023-03-06T06:05:22.708Z,135.10
2023-03-06T06:06:25.923Z,132.00
2023-03-06T06:08:00.891Z,116.40
2023-03-06T06:09:03.773Z,135.80
2023-03-06T06:10:09.384Z,120.50
2023-03-06T06:11:44.711Z,115.20
2023-03-06T06:12:47.852Z,129.30
2023-03-06T06:13:51.051Z,119.90
2023-03-06T06:15:26.190Z,138.60
2023-03-06T06:16:29.611Z,117.60
2023-03-06T06:17:32.766Z,131.40
2023-03-06T06:19:07.792Z,121.60
2023-03-06T06:20:10.970Z,115.90
2023-03-06T06:21:14.097Z,115.70
2023-03-06T06:22:49.111Z,119.60
2023-03-06T06:23:52.244Z,115.20
2023-03-06T06:24:55.364Z,129.40
2023-03-06T06:26:30.413Z,120.80
2023-03-06T06:27:33.584Z,134.70
2023-03-06T06:28:36.998Z,131.60
2023-03-06T06:30:11.979Z,133.10
2023-03-06T06:31:15.453Z,131.30
2023-03-06T06:32:18.872Z,130.40
2023-03-06T06:33:53.976Z,133.00
2023-03-06T06:34:57.351Z,126.60
2023-03-06T06:36:00.950Z,134.80
2023-03-06T06:37:36.473Z,132.00
2023-03-06T06:38:39.599Z,138.90
2023-03-06T06:39:42.797Z,165.00
2023-03-06T06:42:45.396Z,126.70
2023-03-06T06:43:48.564Z,133.40
2023-03-06T06:44:51.439Z,133.70
2023-03-06T06:47:39.775Z,129.40
2023-03-06T06:48:43.055Z,121.60
2023-03-06T06:49:46.535Z,174.00
2023-03-06T06:51:22.022Z,236.80
2023-03-06T06:52:25.091Z,239.70
2023-03-06T06:53:28.296Z,208.60
2023-03-06T06:55:03.219Z,181.90
2023-03-06T06:56:06.457Z,182.90
2023-03-06T06:57:09.627Z,210.40
2023-03-06T06:58:44.844Z,179.10
2023-03-06T06:59:48.095Z,262.80
2023-03-06T07:00:35.069Z,126.10
2023-03-06T07:01:38.518Z,132.30
2023-03-06T07:02:41.830Z,135.40
2023-03-06T07:04:17.182Z,123.20
2023-03-06T07:05:27.859Z,240.40
2023-03-06T07:06:31.260Z,162.80
2023-03-06T07:08:06.401Z,237.00
2023-03-06T07:09:09.856Z,243.80
2023-03-06T07:10:12.798Z,148.90
2023-03-06T07:11:50.137Z,138.00
2023-03-06T07:12:53.274Z,145.40
2023-03-06T07:13:56.523Z,187.30
2023-03-06T07:15:31.806Z,217.50
2023-03-06T07:16:35.617Z,152.30
2023-03-06T07:17:38.559Z,145.20
2023-03-06T07:19:13.962Z,149.80
2023-03-06T07:20:17.139Z,145.30
2023-03-06T07:21:21.939Z,164.40
2023-03-06T07:23:13.694Z,157.90
2023-03-06T07:24:16.847Z,239.40
2023-03-06T07:25:19.778Z,149.70
2023-03-06T07:26:57.801Z,176.60
2023-03-06T07:28:09.978Z,231.60
2023-03-06T07:29:15.950Z,162.80
2023-03-06T07:30:50.859Z,164.30
2023-03-06T07:31:54.442Z,158.60
2023-03-06T07:32:57.682Z,171.30
2023-03-06T07:34:32.888Z,172.00
2023-03-06T07:35:43.706Z,156.00
2023-03-06T07:36:47.122Z,160.70
2023-03-06T07:38:22.099Z,150.30
2023-03-06T07:39:25.318Z,212.40
2023-03-06T07:40:28.367Z,129.00
2023-03-06T07:42:03.102Z,130.40
2023-03-06T07:43:24.601Z,140.90
2023-03-06T07:44:27.758Z,143.20
2023-03-06T07:46:03.113Z,155.60
2023-03-06T07:47:06.301Z,211.50
2023-03-06T07:48:12.059Z,145.20
2023-03-06T07:49:47.410Z,126.30
2023-03-06T07:50:50.311Z,126.70
2023-03-06T07:51:53.221Z,146.80
2023-03-06T07:53:28.582Z,141.80
2023-03-06T07:54:31.712Z,166.30
2023-03-06T07:55:34.871Z,179.40
2023-03-06T07:57:09.894Z,239.00
2023-03-06T07:58:12.891Z,256.60
2023-03-06T07:59:18.563Z,193.90
2023-03-06T08:00:34.920Z,154.80
2023-03-06T08:01:37.903Z,181.30
2023-03-06T08:02:41.186Z,174.70
2023-03-06T08:04:17.068Z,152.80
2023-03-06T08:05:20.383Z,224.70
2023-03-06T08:06:23.795Z,182.90
2023-03-06T08:07:58.873Z,141.10
2023-03-06T08:09:02.314Z,151.60
2023-03-06T08:10:05.641Z,176.50
2023-03-06T08:11:40.636Z,132.20
2023-03-06T08:12:43.730Z,135.70
2023-03-06T08:13:46.759Z,145.20
2023-03-06T08:15:21.889Z,148.20
2023-03-06T08:16:25.223Z,147.00
2023-03-06T08:17:28.349Z,145.60
2023-03-06T08:19:03.622Z,135.40
2023-03-06T08:20:06.623Z,145.20
2023-03-06T08:21:09.577Z,155.00
2023-03-06T08:22:44.856Z,121.90
2023-03-06T08:23:47.940Z,122.30
2023-03-06T08:24:51.161Z,132.60
2023-03-06T08:26:26.713Z,132.80
2023-03-06T08:27:29.666Z,115.70
2023-03-06T08:28:33.013Z,129.60
2023-03-06T08:30:07.767Z,119.70
2023-03-06T08:31:10.948Z,129.70
2023-03-06T08:32:14.381Z,137.20
2023-03-06T08:33:49.754Z,135.70
2023-03-06T08:34:52.681Z,132.10
2023-03-06T08:35:56.381Z,139.60
2023-03-06T08:37:32.525Z,170.90
2023-03-06T08:38:35.863Z,139.30
2023-03-06T08:39:38.968Z,131.40
2023-03-06T08:41:13.966Z,187.30
2023-03-06T08:42:18.262Z,144.90
2023-03-06T08:43:24.465Z,205.90
2023-03-06T08:44:59.360Z,227.50
2023-03-06T08:46:02.860Z,220.50
2023-03-06T08:47:06.476Z,230.30
2023-03-06T08:48:41.430Z,215.80
2023-03-06T08:49:44.402Z,230.50
2023-03-06T08:50:47.599Z,177.50
2023-03-06T08:52:22.838Z,146.00
2023-03-06T08:53:42.021Z,139.90
2023-03-06T08:54:46.393Z,207.10
2023-03-06T08:56:23.994Z,203.80
2023-03-06T08:57:27.334Z,150.30
2023-03-06T08:58:30.783Z,192.10
2023-03-06T09:00:35.445Z,226.30
2023-03-06T09:01:39.035Z,219.60
2023-03-06T09:02:42.910Z,190.60
2023-03-06T09:04:17.983Z,218.30
2023-03-06T09:05:21.100Z,140.70
2023-03-06T09:06:24.417Z,203.80
2023-03-06T09:07:59.659Z,179.80
2023-03-06T09:09:02.882Z,142.10
2023-03-06T09:10:05.935Z,142.20
2023-03-06T09:11:41.468Z,142.10
2023-03-06T09:13:01.140Z,123.30
2023-03-06T09:14:04.124Z,133.10
2023-03-06T09:15:39.420Z,139.00
2023-03-06T09:16:42.952Z,137.10
2023-03-06T09:17:46.636Z,137.40
2023-03-06T09:19:21.862Z,110.90
2023-03-06T09:20:27.447Z,117.50
2023-03-06T09:21:30.680Z,115.10
2023-03-06T09:23:05.672Z,100.60
2023-03-06T09:24:08.651Z,115.50
2023-03-06T09:25:11.720Z,106.20
2023-03-06T09:27:05.335Z,107.30
2023-03-06T09:28:23.835Z,111.30
2023-03-06T09:29:26.988Z,112.50
2023-03-06T09:31:02.478Z,108.00
2023-03-06T09:32:05.977Z,107.40
2023-03-06T09:33:09.640Z,105.00
2023-03-06T09:34:44.744Z,123.50
2023-03-06T09:35:48.447Z,116.50
2023-03-06T09:37:12.079Z,112.40
2023-03-06T09:38:47.235Z,114.30
2023-03-06T09:39:50.502Z,109.40
2023-03-06T09:40:53.658Z,115.40
2023-03-06T09:42:28.772Z,116.40
2023-03-06T09:43:33.625Z,117.60
2023-03-06T09:44:36.958Z,119.80
2023-03-06T09:46:12.634Z,119.50
2023-03-06T09:47:15.864Z,108.30
2023-03-06T09:48:19.215Z,98.60
2023-03-06T09:49:54.317Z,107.70
2023-03-06T09:50:58.861Z,107.70
2023-03-06T09:52:02.747Z,107.30
2023-03-06T09:53:37.891Z,104.90
2023-03-06T09:54:41.225Z,96.70
2023-03-06T09:55:44.366Z,88.60
2023-03-06T09:57:19.754Z,109.00
2023-03-06T09:58:24.523Z,108.60
2023-03-06T09:59:27.734Z,110.90
2023-03-06T10:00:35.007Z,95.50
2023-03-06T10:01:38.005Z,96.70
2023-03-06T10:02:42.213Z,90.80
2023-03-06T10:04:18.215Z,91.60
2023-03-06T10:05:21.488Z,109.60
2023-03-06T10:06:25.417Z,113.00
2023-03-06T10:08:00.604Z,115.50
2023-03-06T10:09:03.744Z,116.10
2023-03-06T10:10:07.090Z,101.20
2023-03-06T10:11:41.864Z,116.60
2023-03-06T10:12:47.379Z,116.80
2023-03-06T10:13:50.586Z,101.20
2023-03-06T10:15:25.686Z,118.20
2023-03-06T10:16:29.121Z,104.40
2023-03-06T10:17:32.199Z,103.00
2023-03-06T10:19:07.220Z,112.10
2023-03-06T10:20:10.296Z,100.70
2023-03-06T10:21:29.952Z,116.60
2023-03-06T10:23:22.334Z,116.90
2023-03-06T10:24:25.362Z,104.10
2023-03-06T10:25:28.646Z,99.70
2023-03-06T10:27:04.267Z,111.80
2023-03-06T10:28:07.397Z,101.40
2023-03-06T10:29:10.384Z,100.70
2023-03-06T10:31:01.415Z,116.70
2023-03-06T10:32:04.384Z,99.50
2023-03-06T10:33:12.278Z,99.40
2023-03-06T10:34:47.183Z,98.10
2023-03-06T10:35:53.292Z,112.00
2023-03-06T10:36:56.352Z,114.30
2023-03-06T10:38:31.241Z,99.90
2023-03-06T10:39:34.374Z,99.90
2023-03-06T10:40:37.725Z,98.50
2023-03-06T10:42:12.552Z,100.50
2023-03-06T10:43:36.204Z,118.10
2023-03-06T10:44:39.616Z,117.20
2023-03-06T10:46:14.653Z,96.60
2023-03-06T10:47:17.699Z,114.10
2023-03-06T10:48:20.713Z,109.50
2023-03-06T10:49:55.436Z,116.70
2023-03-06T10:50:59.708Z,103.30
2023-03-06T10:52:15.166Z,118.20
2023-03-06T10:53:49.827Z,119.50
2023-03-06T10:54:53.117Z,114.50
2023-03-06T10:55:56.179Z,123.30
2023-03-06T10:57:31.428Z,122.20
2023-03-06T10:58:34.659Z,109.60
2023-03-06T10:59:37.948Z,118.50
2023-03-06T11:00:36.745Z,104.90
2023-03-06T11:01:40.141Z,106.70
2023-03-06T11:02:43.231Z,105.30
2023-03-06T11:04:18.249Z,116.70
2023-03-06T11:05:21.208Z,106.50
2023-03-06T11:06:24.749Z,117.60
2023-03-06T11:07:59.730Z,105.80
2023-03-06T11:09:02.571Z,106.00
2023-03-06T11:10:05.596Z,107.00
2023-03-06T11:11:57.640Z,107.10
2023-03-06T11:13:00.852Z,121.50
2023-03-06T11:14:03.883Z,105.60
2023-03-06T11:15:38.924Z,106.60
2023-03-06T11:16:43.232Z,119.70
2023-03-06T11:17:46.149Z,122.20
2023-03-06T11:19:21.305Z,120.40
2023-03-06T11:20:24.626Z,122.10
2023-03-06T11:21:48.645Z,121.10
2023-03-06T11:23:23.809Z,106.90
2023-03-06T11:24:26.700Z,108.00
2023-03-06T11:25:29.690Z,107.80
2023-03-06T11:27:04.597Z,121.50
2023-03-06T11:28:07.781Z,121.70
2023-03-06T11:29:11.288Z,110.50
2023-03-06T11:30:47.737Z,122.10
2023-03-06T11:31:51.131Z,120.40
2023-03-06T11:32:54.627Z,105.30
2023-03-06T11:34:29.505Z,108.30
2023-03-06T11:35:32.763Z,123.70
2023-03-06T11:36:35.853Z,122.70
2023-03-06T11:38:10.847Z,123.40
2023-03-06T11:39:15.496Z,104.90
2023-03-06T11:40:18.468Z,122.90
2023-03-06T11:41:53.536Z,122.60
2023-03-06T11:42:56.483Z,116.70
2023-03-06T11:43:59.458Z,125.20
2023-03-06T11:45:34.446Z,110.40
2023-03-06T11:46:37.707Z,123.80
2023-03-06T11:47:41.037Z,122.30
2023-03-06T11:49:16.007Z,121.70
2023-03-06T11:50:18.846Z,123.70
2023-03-06T11:51:23.633Z,125.10
2023-03-06T11:52:58.406Z,124.60
2023-03-06T11:54:01.521Z,125.10
2023-03-06T11:55:04.517Z,122.20
2023-03-06T11:56:42.684Z,121.20
2023-03-06T11:57:45.781Z,108.30
2023-03-06T11:58:48.880Z,123.80
2023-03-06T12:00:35.340Z,123.10
2023-03-06T12:01:38.516Z,109.70
2023-03-06T12:02:41.577Z,109.10
2023-03-06T12:04:18.344Z,123.30
2023-03-06T12:05:22.244Z,109.60
2023-03-06T12:06:25.779Z,125.00
2023-03-06T12:08:03.108Z,124.30
2023-03-06T12:09:06.232Z,112.60
2023-03-06T12:10:09.455Z,124.70
2023-03-06T12:11:50.407Z,125.60
2023-03-06T12:12:53.846Z,112.90
2023-03-06T12:13:56.869Z,125.60
2023-03-06T12:15:33.521Z,126.30
2023-03-06T12:16:36.853Z,110.30
2023-03-06T12:17:40.015Z,110.80
2023-03-06T12:19:14.924Z,111.30
2023-03-06T12:20:17.963Z,123.10
2023-03-06T12:21:20.946Z,123.50
2023-03-06T12:23:21.351Z,124.50
2023-03-06T12:24:24.620Z,109.00
2023-03-06T12:25:27.757Z,120.70
2023-03-06T12:27:02.859Z,109.70
2023-03-06T12:28:06.024Z,122.30
2023-03-06T12:29:09.098Z,109.90
2023-03-06T12:30:43.893Z,107.90
2023-03-06T12:31:47.557Z,111.10
2023-03-06T12:32:50.717Z,123.60
2023-03-06T12:34:25.570Z,122.90
2023-03-06T12:35:29.076Z,111.00
2023-03-06T12:36:32.077Z,123.10
2023-03-06T12:38:07.080Z,122.90
2023-03-06T12:39:10.363Z,108.40
2023-03-06T12:40:15.399Z,108.90
2023-03-06T12:41:51.001Z,108.40
2023-03-06T12:42:54.126Z,108.00
2023-03-06T12:43:57.252Z,125.10
2023-03-06T12:45:32.958Z,127.00
2023-03-06T12:46:36.468Z,112.20
2023-03-06T12:47:39.294Z,125.60
2023-03-06T12:49:20.270Z,123.40
2023-03-06T12:50:30.993Z,107.60
2023-03-06T12:51:34.084Z,111.50
2023-03-06T12:53:09.948Z,124.10
2023-03-06T12:54:13.053Z,122.00
2023-03-06T12:55:16.177Z,128.10
2023-03-06T12:56:55.276Z,127.20
2023-03-06T12:57:58.488Z,108.60
2023-03-06T12:59:01.617Z,123.20
2023-03-06T13:00:34.745Z,124.50
2023-03-06T13:01:38.366Z,126.00
2023-03-06T13:02:41.913Z,110.00
2023-03-06T13:04:16.867Z,110.20
2023-03-06T13:05:19.747Z,109.40
2023-03-06T13:06:22.665Z,124.00
2023-03-06T13:07:59.755Z,126.00
2023-03-06T13:09:04.687Z,108.40
2023-03-06T13:10:07.843Z,110.30
2023-03-06T13:11:43.025Z,122.80
2023-03-06T13:12:46.040Z,124.30
2023-03-06T13:13:49.263Z,109.70
2023-03-06T13:15:24.224Z,126.20
2023-03-06T13:16:27.661Z,122.60
2023-03-06T13:17:30.886Z,123.70
2023-03-06T13:19:05.951Z,127.40
2023-03-06T13:20:08.834Z,126.20
2023-03-06T13:21:11.762Z,110.50
2023-03-06T13:22:46.826Z,128.00
2023-03-06T13:23:50.529Z,116.30
2023-03-06T13:25:03.453Z,111.80
2023-03-06T13:26:43.409Z,111.80
2023-03-06T13:27:46.346Z,127.30
2023-03-06T13:28:49.620Z,128.30
2023-03-06T13:30:24.960Z,113.70
2023-03-06T13:31:44.765Z,112.70
2023-03-06T13:32:48.037Z,128.10
2023-03-06T13:34:23.499Z,130.90
2023-03-06T13:35:26.754Z,112.70
2023-03-06T13:36:29.844Z,127.90
2023-03-06T13:38:08.910Z,111.90
2023-03-06T13:39:11.925Z,115.10
2023-03-06T13:40:14.857Z,132.00
2023-03-06T13:41:49.649Z,128.40
2023-03-06T13:42:52.607Z,129.50
2023-03-06T13:43:56.849Z,115.00
2023-03-06T13:45:31.760Z,130.10
2023-03-06T13:46:35.052Z,117.70
2023-03-06T13:48:01.347Z,130.70
2023-03-06T13:50:10.934Z,116.80
2023-03-06T13:51:13.865Z,131.40
2023-03-06T13:52:17.009Z,114.90
2023-03-06T13:53:52.781Z,120.30
2023-03-06T13:54:55.922Z,119.80
2023-03-06T13:55:59.046Z,132.10
2023-03-06T13:57:33.775Z,136.30
2023-03-06T13:58:36.585Z,121.40
2023-03-06T13:59:39.616Z,134.50
2023-03-06T14:00:34.646Z,135.10
2023-03-06T14:01:37.740Z,120.70
2023-03-06T14:02:41.244Z,133.10
2023-03-06T14:04:16.301Z,122.80
2023-03-06T14:05:19.454Z,121.90
2023-03-06T14:06:22.563Z,120.90
2023-03-06T14:07:57.753Z,124.00
2023-03-06T14:09:01.063Z,135.10
2023-03-06T14:10:04.226Z,136.80
2023-03-06T14:11:39.307Z,123.80
2023-03-06T14:12:42.542Z,138.00
2023-03-06T14:13:59.064Z,121.00
2023-03-06T14:15:34.524Z,120.20
2023-03-06T14:16:55.195Z,122.90
2023-03-06T14:17:58.370Z,135.20
2023-03-06T14:19:33.229Z,134.80
2023-03-06T14:20:36.265Z,135.10
2023-03-06T14:21:39.473Z,136.20
2023-03-06T14:23:14.648Z,137.30
2023-03-06T14:24:18.055Z,136.50
2023-03-06T14:25:21.282Z,123.10
2023-03-06T14:26:56.428Z,125.70
2023-03-06T14:28:13.772Z,136.20
2023-03-06T14:29:17.254Z,125.60
2023-03-06T14:30:52.296Z,138.30
2023-03-06T14:31:55.590Z,145.40
2023-03-06T14:32:58.832Z,130.70
2023-03-06T14:34:33.818Z,143.80
2023-03-06T14:35:36.876Z,139.40
2023-03-06T14:36:39.817Z,138.50
2023-03-06T14:38:14.979Z,136.90
2023-03-06T14:39:18.281Z,153.80
2023-03-06T14:40:21.349Z,141.10
2023-03-06T14:41:56.470Z,150.50
2023-03-06T14:42:59.496Z,137.90
2023-03-06T14:44:02.459Z,143.00
2023-03-06T14:45:37.686Z,142.50
2023-03-06T14:46:41.106Z,145.20
2023-03-06T14:47:44.237Z,142.50
2023-03-06T14:49:19.167Z,150.00
2023-03-06T14:50:22.525Z,152.70
2023-03-06T14:51:25.446Z,154.20
2023-03-06T14:53:00.208Z,159.50
2023-03-06T14:54:03.255Z,155.20
2023-03-06T14:55:06.289Z,164.30
2023-03-06T14:56:41.432Z,165.30
2023-03-06T14:57:44.568Z,159.20
2023-03-06T14:58:47.694Z,167.10
2023-03-06T15:00:35.346Z,155.00
2023-03-06T15:01:38.860Z,175.80
2023-03-06T15:02:42.169Z,175.20
2023-03-06T15:04:17.109Z,166.40
2023-03-06T15:05:20.201Z,164.50
2023-03-06T15:06:23.394Z,171.00
2023-03-06T15:07:58.462Z,206.60
2023-03-06T15:09:01.627Z,155.90
2023-03-06T15:10:05.465Z,177.10
2023-03-06T15:11:40.498Z,198.70
2023-03-06T15:12:43.524Z,153.90
2023-03-06T15:13:46.450Z,186.60
2023-03-06T15:15:21.677Z,191.20
2023-03-06T15:16:25.026Z,168.50
2023-03-06T15:17:28.157Z,182.40
2023-03-06T15:19:03.261Z,149.50
2023-03-06T15:20:06.427Z,165.40
2023-03-06T15:21:09.487Z,172.90
2023-03-06T15:22:44.447Z,190.10
2023-03-06T15:23:47.405Z,165.90
2023-03-06T15:24:50.422Z,193.40
2023-03-06T15:26:26.514Z,174.00
2023-03-06T15:27:30.691Z,160.90
2023-03-06T15:28:33.960Z,193.30
2023-03-06T15:30:18.627Z,165.10